createdAt,value
2018-07-05T00:01:07.480Z,99830.26
2018-07-05T00:03:47.506Z,99826.36
2018-07-05T00:06:27.849Z,99822.15
2018-07-05T00:09:08.286Z,99825.13
2018-07-05T00:11:48.689Z,99825.39
2018-07-05T00:14:30.375Z,99814.90
2018-07-05T00:17:10.519Z,99817.53
2018-07-05T00:19:50.731Z,99814.95
2018-07-05T00:22:31.147Z,99811.78
2018-07-05T00:25:11.238Z,99810.03
2018-07-05T00:27:51.443Z,99810.15
2018-07-05T00:30:31.499Z,99805.45
2018-07-05T00:33:11.729Z,99808.88
2018-07-05T00:35:52.096Z,99799.77
2018-07-05T00:38:32.308Z,99798.44
2018-07-05T00:41:12.473Z,99795.87
2018-07-05T00:43:52.544Z,99791.86
2018-07-05T00:46:33.009Z,99789.70
2018-07-05T00:49:13.202Z,99787.75
2018-07-05T00:51:53.474Z,99787.56
2018-07-05T00:54:33.758Z,99788.42
2018-07-05T00:57:16.146Z,99792.26
2018-07-05T00:59:56.291Z,99790.08
2018-07-05T01:02:36.384Z,99786.91
2018-07-05T01:05:16.448Z,99788.36
2018-07-05T01:07:56.609Z,99779.81
2018-07-05T01:10:37.109Z,99778.17
2018-07-05T01:13:17.199Z,99783.23
2018-07-05T01:15:57.308Z,99778.47
2018-07-05T01:18:37.496Z,99776.94
2018-07-05T01:21:18.043Z,99771.69
2018-07-05T01:23:58.312Z,99780.99
2018-07-05T01:26:38.580Z,99775.52
2018-07-05T01:29:18.657Z,99776.47
2018-07-05T01:31:59.429Z,99780.07
2018-07-05T01:34:39.486Z,99775.31
2018-07-05T01:37:19.749Z,99778.11
2018-07-05T01:40:00.685Z,99771.43
2018-07-05T01:42:41.563Z,99777.70
2018-07-05T01:45:21.724Z,99774.83
2018-07-05T01:48:02.109Z,99777.11
2018-07-05T01:50:42.373Z,99783.30
2018-07-05T01:53:22.598Z,99780.50
2018-07-05T01:56:03.085Z,99779.48
2018-07-05T01:58:43.215Z,99782.42
2018-07-05T02:01:23.272Z,99781.00
2018-07-05T02:04:03.462Z,99778.42
2018-07-05T02:06:43.618Z,99775.54
2018-07-05T02:09:23.840Z,99775.64
2018-07-05T02:12:04.353Z,99774.28
2018-07-05T02:14:44.761Z,99774.06
2018-07-05T02:17:25.093Z,99772.52
2018-07-05T02:20:05.229Z,99777.97
2018-07-05T02:22:47.021Z,99783.11
2018-07-05T02:25:27.313Z,99786.91
2018-07-05T02:28:07.513Z,99793.39
2018-07-05T02:30:47.766Z,99794.51
2018-07-05T02:33:28.082Z,99796.97
2018-07-05T02:36:08.172Z,99794.69
2018-07-05T02:38:52.189Z,99804.34
2018-07-05T02:41:32.302Z,99800.63
2018-07-05T02:44:12.519Z,99799.56
2018-07-05T02:46:52.713Z,99792.16
2018-07-05T02:49:33.049Z,99793.23
2018-07-05T02:52:13.247Z,99795.28
2018-07-05T02:54:53.404Z,99793.00
2018-07-05T02:57:33.494Z,99790.91
2018-07-05T03:00:13.668Z,99787.52
2018-07-05T03:02:53.879Z,99781.53
2018-07-05T03:05:34.505Z,99789.64
2018-07-05T03:08:14.601Z,99793.34
2018-07-05T03:10:55.157Z,99796.42
2018-07-05T03:13:35.222Z,99793.30
2018-07-05T03:16:15.406Z,99794.22
2018-07-05T03:18:55.530Z,99793.88
2018-07-05T03:21:35.842Z,99789.86
2018-07-05T03:24:16.296Z,99781.11
2018-07-05T03:26:56.493Z,99780.48
2018-07-05T03:29:36.722Z,99782.09
2018-07-05T03:32:17.169Z,99781.27
2018-07-05T03:34:57.432Z,99785.39
2018-07-05T03:37:37.601Z,99779.17
2018-07-05T03:40:17.829Z,99779.25
2018-07-05T03:42:58.158Z,99777.05
2018-07-05T03:45:38.301Z,99777.03
2018-07-05T03:48:18.337Z,99781.75
2018-07-05T03:50:58.569Z,99780.02
2018-07-05T03:53:38.688Z,99778.86
2018-07-05T03:56:19.141Z,99784.89
2018-07-05T03:58:59.327Z,99785.00
2018-07-05T04:01:39.526Z,99782.53
2018-07-05T04:04:19.771Z,99789.32
2018-07-05T04:07:00.663Z,99787.02
2018-07-05T04:09:41.230Z,99790.31
2018-07-05T04:12:21.368Z,99764.31
2018-07-05T04:15:01.894Z,99799.83
2018-07-05T04:17:42.440Z,99791.91
2018-07-05T04:20:22.605Z,99783.94
2018-07-05T04:23:03.058Z,99788.17
2018-07-05T04:25:43.300Z,99784.39
2018-07-05T04:28:23.529Z,99784.00
2018-07-05T04:31:03.580Z,99788.05
2018-07-05T04:33:43.694Z,99788.01
2018-07-05T04:36:24.181Z,99781.67
2018-07-05T04:39:04.292Z,99781.89
2018-07-05T04:41:44.576Z,99778.00
2018-07-05T04:44:24.921Z,99775.45
2018-07-05T04:47:05.349Z,99781.44
2018-07-05T04:49:45.445Z,99782.39
2018-07-05T04:52:25.609Z,99779.95
2018-07-05T04:55:06.137Z,99774.59
2018-07-05T04:57:46.213Z,99779.86
2018-07-05T05:00:26.434Z,99772.02
2018-07-05T05:03:06.474Z,99780.30
2018-07-05T05:05:46.689Z,99776.19
2018-07-05T05:08:27.199Z,99779.57
2018-07-05T05:11:07.417Z,99778.13
2018-07-05T05:13:49.256Z,99774.30
2018-07-05T05:16:29.370Z,99780.06
2018-07-05T05:19:09.723Z,99782.75
2018-07-05T05:21:50.211Z,99778.42
2018-07-05T05:24:30.377Z,99779.43
2018-07-05T05:27:10.581Z,99780.54
2018-07-05T05:29:50.952Z,99781.16
2018-07-05T05:32:31.029Z,99775.86
2018-07-05T05:35:11.313Z,99773.45
2018-07-05T05:37:51.401Z,99767.50
2018-07-05T05:40:31.582Z,99767.64
2018-07-05T05:43:11.682Z,99772.87
2018-07-05T05:45:52.177Z,99773.13
2018-07-05T05:48:32.378Z,99771.84
2018-07-05T05:51:12.481Z,99769.79
2018-07-05T05:53:52.557Z,99769.62
2018-07-05T05:56:35.181Z,99772.56
2018-07-05T05:59:15.640Z,99766.72
2018-07-05T06:01:56.118Z,99760.20
2018-07-05T06:04:36.559Z,99763.49
2018-07-05T06:07:16.997Z,99768.52
2018-07-05T06:09:57.134Z,99762.86
2018-07-05T06:12:37.325Z,99767.64
2018-07-05T06:15:17.492Z,99760.95
2018-07-05T06:17:58.128Z,99765.30
2018-07-05T06:20:38.257Z,99767.24
2018-07-05T06:23:18.417Z,99759.76
2018-07-05T06:25:58.607Z,99758.25
2018-07-05T06:28:38.645Z,99766.30
2018-07-05T06:31:18.940Z,99765.53
2018-07-05T06:33:59.129Z,99768.06
2018-07-05T06:36:39.217Z,99766.53
2018-07-05T06:39:20.149Z,99755.84
2018-07-05T06:42:00.445Z,99760.59
2018-07-05T06:44:40.485Z,99765.02
2018-07-05T06:47:20.901Z,99760.23
2018-07-05T06:50:01.222Z,99762.23
2018-07-05T06:52:41.469Z,99762.19
2018-07-05T06:55:21.527Z,99763.91
2018-07-05T06:58:01.655Z,99762.32
2018-07-05T07:00:42.031Z,99763.98
2018-07-05T07:03:22.178Z,99763.77
2018-07-05T07:08:36.164Z,99757.98
2018-07-05T07:11:16.362Z,99758.06
2018-07-05T07:13:56.649Z,99751.80
2018-07-05T07:16:36.704Z,99753.83
2018-07-05T07:19:17.100Z,99749.19
2018-07-05T07:21:57.258Z,99745.34
2018-07-05T07:24:38.310Z,99748.33
2018-07-05T07:27:18.342Z,99738.52
2018-07-05T07:29:58.585Z,99736.61
2018-07-05T07:32:38.809Z,99739.51
2018-07-05T07:35:19.302Z,99729.31
2018-07-05T07:37:59.426Z,99736.28
2018-07-05T07:40:39.568Z,99737.79
2018-07-05T07:43:07.551Z,99725.98
2018-07-05T07:45:35.572Z,99721.95
2018-07-05T07:48:04.071Z,99720.94
2018-07-05T07:50:32.147Z,99720.19
2018-07-05T07:53:00.123Z,99725.42
2018-07-05T07:55:28.110Z,99724.64
2018-07-05T07:57:56.033Z,99725.02
2018-07-05T08:00:23.957Z,99728.61
2018-07-05T08:02:52.019Z,99724.32
2018-07-05T08:05:19.969Z,99728.16
2018-07-05T08:07:47.964Z,99726.82
2018-07-05T08:10:16.005Z,99728.51
2018-07-05T08:12:44.042Z,99717.36
2018-07-05T08:15:26.289Z,99721.75
2018-07-05T08:17:54.257Z,99716.30
2018-07-05T08:20:22.210Z,99719.02
2018-07-05T08:22:50.325Z,99716.33
2018-07-05T08:25:18.247Z,99715.73
2018-07-05T08:27:46.321Z,99713.02
2018-07-05T08:30:14.348Z,99712.44
2018-07-05T08:32:42.257Z,99712.16
2018-07-05T08:35:10.240Z,99712.13
2018-07-05T08:37:38.736Z,99714.81
2018-07-05T08:40:07.181Z,99716.66
2018-07-05T08:42:35.189Z,99715.30
2018-07-05T08:45:03.146Z,99710.39
2018-07-05T08:47:31.217Z,99715.55
2018-07-05T08:49:59.669Z,99717.47
2018-07-05T08:52:28.506Z,99713.60
2018-07-05T08:54:59.113Z,99714.34
2018-07-05T08:57:28.783Z,99704.17
2018-07-05T08:59:59.841Z,99702.36
2018-07-05T09:02:29.544Z,99684.61
2018-07-05T09:04:58.751Z,99695.84
2018-07-05T09:07:26.769Z,99699.53
2018-07-05T09:09:54.730Z,99698.88
2018-07-05T09:12:22.745Z,99690.44
2018-07-05T09:14:51.114Z,99687.39
2018-07-05T09:17:19.118Z,99688.85
2018-07-05T09:19:47.240Z,99692.48
2018-07-05T09:22:15.254Z,99686.30
2018-07-05T09:24:43.188Z,99686.66
2018-07-05T09:27:11.137Z,99688.95
2018-07-05T09:29:39.137Z,99679.53
2018-07-05T09:32:07.209Z,99688.71
2018-07-05T09:34:35.418Z,99686.14
2018-07-05T09:37:03.457Z,99686.39
2018-07-05T09:39:31.567Z,99684.80
2018-07-05T09:41:59.481Z,99684.27
2018-07-05T09:44:27.455Z,99679.30
2018-07-05T09:46:55.575Z,99678.83
2018-07-05T09:49:23.573Z,99677.28
2018-07-05T09:51:51.542Z,99679.88
2018-07-05T09:54:19.469Z,99673.22
2018-07-05T09:56:47.401Z,99666.82
2018-07-05T09:59:15.362Z,99669.03
2018-07-05T10:01:43.287Z,99659.84
2018-07-05T10:04:11.262Z,99666.84
2018-07-05T10:06:39.195Z,99665.39
2018-07-05T10:09:07.322Z,99659.23
2018-07-05T10:11:35.517Z,99655.73
2018-07-05T10:14:03.458Z,99654.38
2018-07-05T10:16:31.442Z,99659.69
2018-07-05T10:18:59.369Z,99658.63
2018-07-05T10:21:27.607Z,99653.95
2018-07-05T10:23:56.046Z,99644.72
2018-07-05T10:26:24.066Z,99643.23
2018-07-05T10:29:04.304Z,99639.98
2018-07-05T10:31:44.470Z,99647.17
2018-07-05T10:34:12.449Z,99639.31
2018-07-05T10:36:40.401Z,99636.08
2018-07-05T10:39:08.434Z,99630.23
2018-07-05T10:41:48.874Z,99638.45
2018-07-05T10:44:29.356Z,99636.82
2018-07-05T10:47:09.508Z,99630.36
2018-07-05T10:49:49.742Z,99628.26
2018-07-05T10:52:30.386Z,99628.63
2018-07-05T10:55:10.498Z,99626.67
2018-07-05T10:57:50.774Z,99630.28
2018-07-05T11:00:31.328Z,99620.67
2018-07-05T11:03:11.501Z,99621.37
2018-07-05T11:05:53.457Z,99619.07
2018-07-05T11:08:33.726Z,99623.73
2018-07-05T11:11:14.164Z,99623.95
2018-07-05T11:13:54.407Z,99617.38
2018-07-05T11:16:34.672Z,99615.94
2018-07-05T11:19:15.252Z,99608.89
2018-07-05T11:21:55.352Z,99603.90
2018-07-05T11:24:35.957Z,99602.05
2018-07-05T11:27:16.233Z,99603.45
2018-07-05T11:29:56.529Z,99601.09
2018-07-05T11:32:37.628Z,99606.23
2018-07-05T11:35:17.798Z,99602.29
2018-07-05T11:37:58.260Z,99574.44
2018-07-05T11:40:38.582Z,99595.42
2018-07-05T11:43:19.220Z,99607.80
2018-07-05T11:45:59.322Z,99600.02
2018-07-05T11:48:42.210Z,99594.83
2018-07-05T11:51:22.492Z,99584.68
2018-07-05T11:54:02.682Z,99591.86
2018-07-05T11:56:43.604Z,99595.80
2018-07-05T11:59:24.811Z,99581.41
2018-07-05T12:02:05.387Z,99578.23
2018-07-05T12:04:45.937Z,99578.66
2018-07-05T12:07:26.230Z,99577.66
2018-07-05T12:10:06.529Z,99568.99
2018-07-05T12:12:46.665Z,99571.42
2018-07-05T12:15:26.802Z,99573.79
2018-07-05T12:18:07.785Z,99565.61
2018-07-05T12:20:48.245Z,99569.73
2018-07-05T12:23:28.483Z,99566.66
2018-07-05T12:26:08.921Z,99566.41
2018-07-05T12:28:49.019Z,99562.12
2018-07-05T12:31:29.415Z,99562.26
2018-07-05T12:34:09.569Z,99556.37
2018-07-05T12:36:49.889Z,99547.03
2018-07-05T12:39:30.341Z,99546.59
2018-07-05T12:42:10.699Z,99541.13
2018-07-05T12:44:51.170Z,99545.21
2018-07-05T12:47:31.259Z,99535.48
2018-07-05T12:50:11.547Z,99539.70
2018-07-05T12:52:51.761Z,99539.59
2018-07-05T12:55:32.249Z,99527.61
2018-07-05T12:58:12.464Z,99532.34
2018-07-05T13:00:52.629Z,99531.14
2018-07-05T13:03:32.701Z,99529.46
2018-07-05T13:06:12.982Z,99530.49
2018-07-05T13:08:53.261Z,99530.33
2018-07-05T13:11:33.446Z,99533.69
2018-07-05T13:14:13.687Z,99529.94
2018-07-05T13:16:54.541Z,99530.33
2018-07-05T13:19:34.639Z,99526.16
2018-07-05T13:22:15.256Z,99526.01
2018-07-05T13:24:55.352Z,99531.73
2018-07-05T13:27:35.477Z,99525.66
2018-07-05T13:30:15.675Z,99527.57
2018-07-05T13:32:55.829Z,99529.73
2018-07-05T13:35:37.800Z,99527.09
2018-07-05T13:38:18.426Z,99529.27
2018-07-05T13:40:58.586Z,99519.17
2018-07-05T13:43:38.845Z,99514.72
2018-07-05T13:46:19.338Z,99512.95
2018-07-05T13:48:59.497Z,99514.36
2018-07-05T13:51:39.565Z,99515.34
2018-07-05T13:54:19.763Z,99507.58
2018-07-05T13:57:00.720Z,99508.77
2018-07-05T13:59:40.989Z,99503.02
2018-07-05T14:02:21.283Z,99507.86
2018-07-05T14:05:01.462Z,99502.69
2018-07-05T14:07:41.556Z,99504.11
2018-07-05T14:10:21.717Z,99510.43
2018-07-05T14:13:02.243Z,99513.48
2018-07-05T14:15:42.498Z,99510.67
2018-07-05T14:18:22.661Z,99507.95
2018-07-05T14:21:03.363Z,99496.59
2018-07-05T14:23:43.558Z,99505.23
2018-07-05T14:26:23.685Z,99501.52
2018-07-05T14:29:03.905Z,99502.97
2018-07-05T14:31:44.251Z,99501.20
2018-07-05T14:34:24.615Z,99503.64
2018-07-05T14:37:04.884Z,99499.24
2018-07-05T14:39:46.738Z,99498.68
2018-07-05T14:42:27.485Z,99501.84
2018-07-05T14:45:07.703Z,99497.39
2018-07-05T14:47:48.155Z,99498.13
2018-07-05T14:50:28.254Z,99498.51
2018-07-05T14:53:08.393Z,99501.01
2018-07-05T14:55:48.623Z,99499.58
2018-07-05T14:58:28.892Z,99493.31
2018-07-05T15:01:09.198Z,99494.69
2018-07-05T15:03:49.478Z,99489.03
2018-07-05T15:06:29.754Z,99490.90
2018-07-05T15:09:10.164Z,99484.52
2018-07-05T15:11:50.298Z,99484.66
2018-07-05T15:14:30.453Z,99477.22
2018-07-05T15:17:10.575Z,99479.42
2018-07-05T15:19:50.685Z,99471.41
2018-07-05T15:22:31.712Z,99466.70
2018-07-05T15:25:12.381Z,99469.91
2018-07-05T15:27:52.443Z,99467.30
2018-07-05T15:30:32.602Z,99466.67
2018-07-05T15:33:12.673Z,99460.43
2018-07-05T15:35:53.342Z,99464.05
2018-07-05T15:38:33.396Z,99460.14
2018-07-05T15:41:13.681Z,99458.22
2018-07-05T15:43:54.153Z,99456.36
2018-07-05T15:46:34.403Z,99454.88
2018-07-05T15:49:14.482Z,99450.58
2018-07-05T15:51:54.596Z,99453.33
2018-07-05T15:54:34.669Z,99451.65
2018-07-05T15:57:15.755Z,99444.52
2018-07-05T15:59:56.083Z,99449.98
2018-07-05T16:02:36.174Z,99456.11
2018-07-05T16:05:18.249Z,99447.23
2018-07-05T16:07:58.536Z,99445.59
2018-07-05T16:10:38.705Z,99442.34
2018-07-05T16:13:19.229Z,99437.52
2018-07-05T16:15:59.401Z,99438.30
2018-07-05T16:18:39.501Z,99442.02
2018-07-05T16:21:19.881Z,99437.16
2018-07-05T16:24:00.272Z,99438.09
2018-07-05T16:26:40.333Z,99444.59
2018-07-05T16:29:20.549Z,99439.59
2018-07-05T16:32:00.594Z,99438.22
2018-07-05T16:34:40.849Z,99441.45
2018-07-05T16:37:21.278Z,99440.45
2018-07-05T16:40:01.386Z,99437.25
2018-07-05T16:42:41.585Z,99434.05
2018-07-05T16:45:21.669Z,99428.66
2018-07-05T16:48:03.509Z,99426.22
2018-07-05T16:50:43.749Z,99425.98
2018-07-05T16:53:24.217Z,99427.09
2018-07-05T16:56:04.303Z,99429.70
2018-07-05T16:58:44.488Z,99430.20
2018-07-05T17:01:24.710Z,99430.56
2018-07-05T17:04:05.303Z,99429.52
2018-07-05T17:06:45.517Z,99424.03
2018-07-05T17:09:25.705Z,99420.27
2018-07-05T17:12:06.253Z,99420.39
2018-07-05T17:14:46.366Z,99424.40
2018-07-05T17:17:26.491Z,99430.98
2018-07-05T17:20:07.111Z,99426.13
2018-07-05T17:22:47.274Z,99429.44
2018-07-05T17:25:27.457Z,99421.55
2018-07-05T17:28:07.563Z,99424.45
2018-07-05T17:30:49.653Z,99419.51
2018-07-05T17:33:30.589Z,99421.09
2018-07-05T17:36:10.639Z,99426.50
2018-07-05T17:38:51.190Z,99425.95
2018-07-05T17:41:31.398Z,99425.20
2018-07-05T17:44:11.679Z,99419.55
2018-07-05T17:46:52.019Z,99420.28
2018-07-05T17:49:32.153Z,99422.39
2018-07-05T17:52:12.257Z,99419.03
2018-07-05T17:54:52.499Z,99423.94
2018-07-05T17:57:32.590Z,99429.86
2018-07-05T18:00:13.122Z,99426.61
2018-07-05T18:02:53.393Z,99433.08
2018-07-05T18:05:33.653Z,99427.42
2018-07-05T18:08:13.733Z,99430.13
2018-07-05T18:10:53.845Z,99425.84
2018-07-05T18:13:36.149Z,99429.51
2018-07-05T18:16:16.678Z,99428.28
2018-07-05T18:18:57.076Z,99424.34
2018-07-05T18:21:37.382Z,99431.33
2018-07-05T18:24:17.737Z,99432.28
2018-07-05T18:26:58.584Z,99436.59
2018-07-05T18:29:38.934Z,99438.66
2018-07-05T18:32:19.442Z,99437.95
2018-07-05T18:34:59.656Z,99438.14
2018-07-05T18:37:40.051Z,99435.33
2018-07-05T18:40:20.563Z,99441.23
2018-07-05T18:43:00.807Z,99442.70
2018-07-05T18:45:41.849Z,99445.53
2018-07-05T18:48:22.390Z,99448.91
2018-07-05T18:51:02.497Z,99447.45
2018-07-05T18:53:42.695Z,99451.23
2018-07-05T18:56:23.105Z,99463.44
2018-07-05T18:59:03.389Z,99461.44
2018-07-05T19:01:43.722Z,99462.09
2018-07-05T19:04:24.269Z,99458.32
2018-07-05T19:07:04.790Z,99462.59
2018-07-05T19:09:45.531Z,99459.11
2018-07-05T19:12:25.727Z,99470.67
2018-07-05T19:15:06.662Z,99467.67
2018-07-05T19:17:47.393Z,99466.26
2018-07-05T19:20:27.861Z,99469.63
2018-07-05T19:23:08.181Z,99475.98
2018-07-05T19:25:48.755Z,99481.22
2018-07-05T19:28:29.898Z,99482.38
2018-07-05T19:31:10.729Z,99482.20
2018-07-05T19:33:50.942Z,99485.80
2018-07-05T19:36:34.004Z,99480.95
2018-07-05T19:39:14.510Z,99482.36
2018-07-05T19:41:55.418Z,99487.85
2018-07-05T19:44:35.891Z,99484.59
2018-07-05T19:47:16.461Z,99491.72
2018-07-05T19:49:56.837Z,99490.92
2018-07-05T19:52:37.522Z,99503.50
2018-07-05T19:55:17.741Z,99499.22
2018-07-05T19:57:58.515Z,99506.64
2018-07-05T20:00:39.044Z,99505.57
2018-07-05T20:03:19.803Z,99513.00
2018-07-05T20:06:00.358Z,99517.12
2018-07-05T20:08:41.006Z,99540.62
2018-07-05T20:11:21.720Z,99562.27
2018-07-05T20:14:02.393Z,99557.34
2018-07-05T20:16:42.680Z,99575.73
2018-07-05T20:19:23.533Z,99594.92
2018-07-05T20:22:03.931Z,99598.09
2018-07-05T20:24:44.613Z,99599.56
2018-07-05T20:27:25.313Z,99597.16
2018-07-05T20:30:05.703Z,99592.05
2018-07-05T20:32:46.177Z,99592.80
2018-07-05T20:35:26.700Z,99587.56
2018-07-05T20:38:07.359Z,99595.09
2018-07-05T20:40:47.939Z,99590.16
2018-07-05T20:43:28.370Z,99586.98
2018-07-05T20:46:08.586Z,99586.33
2018-07-05T20:48:49.026Z,99581.52
2018-07-05T20:51:29.478Z,99574.30
2018-07-05T20:54:09.781Z,99576.03
2018-07-05T20:56:51.020Z,99570.08
2018-07-05T20:59:33.930Z,99576.06
2018-07-05T21:02:14.404Z,99534.61
2018-07-05T21:04:54.683Z,99563.66
2018-07-05T21:07:34.985Z,99552.01
2018-07-05T21:10:16.473Z,99542.76
2018-07-05T21:12:56.879Z,99544.60
2018-07-05T21:15:37.441Z,99537.30
2018-07-05T21:18:17.909Z,99530.09
2018-07-05T21:20:58.305Z,99528.47
2018-07-05T21:23:38.741Z,99527.94
2018-07-05T21:26:19.213Z,99532.08
2018-07-05T21:28:59.524Z,99546.72
2018-07-05T21:31:39.707Z,99549.16
2018-07-05T21:34:19.971Z,99558.16
2018-07-05T21:37:00.266Z,99578.77
2018-07-05T21:39:40.528Z,99606.64
2018-07-05T21:42:21.682Z,99620.67
2018-07-05T21:45:02.524Z,99637.42
2018-07-05T21:47:42.773Z,99653.48
2018-07-05T21:50:23.417Z,99646.44
2018-07-05T21:53:03.641Z,99651.11
2018-07-05T21:55:44.231Z,99674.97
2018-07-05T21:58:24.440Z,99672.63
2018-07-05T22:01:04.691Z,99668.11
2018-07-05T22:03:45.125Z,99664.47
2018-07-05T22:06:25.261Z,99665.03
2018-07-05T22:09:06.224Z,99663.27
2018-07-05T22:11:46.914Z,99659.36
2018-07-05T22:14:27.496Z,99667.92
2018-07-05T22:17:12.824Z,99670.48
2018-07-05T22:22:04.164Z,99659.91
2018-07-05T22:24:49.257Z,99652.47
2018-07-05T22:27:34.417Z,99647.22
2018-07-05T22:30:19.639Z,99647.53
2018-07-05T22:33:00.095Z,99647.30
2018-07-05T22:35:40.197Z,99646.75
2018-07-05T22:38:20.419Z,99658.61
2018-07-05T22:41:00.646Z,99662.27
2018-07-05T22:43:41.130Z,99658.81
2018-07-05T22:46:21.349Z,99650.13
2018-07-05T22:49:01.527Z,99650.91
2018-07-05T22:51:41.645Z,99651.80
2018-07-05T22:54:21.697Z,99651.28
2018-07-05T22:57:02.078Z,99653.44
2018-07-05T22:59:42.297Z,99661.25
2018-07-05T23:02:22.398Z,99671.78
2018-07-05T23:05:02.494Z,99677.21
2018-07-05T23:07:42.665Z,99667.66
2018-07-05T23:10:23.718Z,99666.86
2018-07-05T23:13:04.497Z,99669.02
2018-07-05T23:15:44.541Z,99666.02
2018-07-05T23:18:24.683Z,99673.55
2018-07-05T23:21:05.188Z,99671.41
2018-07-05T23:23:45.425Z,99671.63
2018-07-05T23:26:25.513Z,99668.13
2018-07-05T23:29:05.570Z,99660.24
2018-07-05T23:31:45.664Z,99661.08
2018-07-05T23:34:26.145Z,99668.06
2018-07-05T23:37:06.345Z,99670.19
2018-07-05T23:39:46.465Z,99666.62
2018-07-05T23:42:26.669Z,99672.77
2018-07-05T23:45:06.897Z,99665.72
2018-07-05T23:47:47.177Z,99658.30
2018-07-05T23:50:27.389Z,99652.09
2018-07-05T23:53:09.242Z,99644.12
2018-07-05T23:55:49.338Z,99644.50
2018-07-05T23:58:29.418Z,99636.69
